Lowell, MA

11:36 AM EDT on April 28, 2015 (GMT -0400)
Boire | | Change Station
CLOSE
Current Station
Airport
Location: Nashua,
Elevation: 200 ft
Nearby Weather Stations

Elev 200 ft 42.78 °N, 71.51 °W | Updated 45 minutes ago

Partly Cloudy
Partly Cloudy
53 °F
Feels Like 53 °F
N
12
Wind Variable Wind from North

Today
High -- | Low -- °F
--% Chance of Precip.
Yesterday
High -- | Low -- °F
Precip. -- in
5:44 AM 7:41 PM
Waxing Gibbous, 74% visible
Pressure 30.50 in
Visibility 10.0 miles
Clouds Scattered Clouds 4800 ft
Mostly Cloudy 5500 ft
Mostly Cloudy 11000 ft
Dew Point 32 °F
Humidity 45%
Rainfall 0.00 in
Snow Depth Not available.
UV 4 out of 12
Pollen 8.00 out of 12
Air Quality Not available.
Flu Activity Widespread
METAR KASH 281451Z 35010KT 320V020 10SM SCT048 BKN055 BKN110 12/00 A2976 RMK AO2 50000 60000 T01160000 BKN V SCT SLP327 $

More Conditions Fewer Conditions

Pressure 30.50 in
Visibility 10.0 miles
Clouds Scattered Clouds 4800 ft
Mostly Cloudy 5500 ft
Mostly Cloudy 11000 ft
Dew Point 32 °F
Humidity 45%
Rainfall 0.00 in
Snow Depth Not available.
UV 4 out of 12
Pollen 8.00 out of 12
Air Quality Not available.
Flu Activity Widespread
METAR KASH 281451Z 35010KT 320V020 10SM SCT048 BKN055 BKN110 12/00 A2976 RMK AO2 50000 60000 T01160000 BKN V SCT SLP327 $

More Conditions Fewer Conditions

10-Day Weather Forecast

Almanac

Astronomy

Apr. 28, 2015 Rise Set
Actual Time
Civil Twilight
Nautical Twilight
Astronomical Twilight
Moon
Length of Visible Light
Length of Day
Tomorrow will be .
, % of the Moon is Illuminated

Today's Extremes

State Highs State Lows

Community

WunderPhotos

Upload Photos

1,817,675 photos uploaded!

WunderBlogs® & News

Nearby

Air Quality

  Air Quality AQ Index Pollutant
Not available.

Snow Depth

Station Depth Elevation

Earthquake Activity

City Distance Mag. Time & Date
Minimum magnitude displayed is 2.5.

Coastal Water Temperatures

Place Temperature

Stations

Nearby Weather Stations

Station Location Temp. Windchill Dew Point Humidity Wind Precip. Elev Updated Type